sensor_id;sensor_type;location;lat;lon;timestamp;P1;durP1;ratioP1;P2;durP2;ratioP2
17618;SDS011;8928;51.678;6.074;2022-08-03T00:01:26;6.30;;;2.40;;
17618;SDS011;8928;51.678;6.074;2022-08-03T00:04:13;10.50;;;3.20;;
17618;SDS011;8928;51.678;6.074;2022-08-03T00:07:01;18.67;;;3.43;;
17618;SDS011;8928;51.678;6.074;2022-08-03T00:09:48;7.80;;;3.13;;
17618;SDS011;8928;51.678;6.074;2022-08-03T00:12:35;11.23;;;3.10;;
17618;SDS011;8928;51.678;6.074;2022-08-03T00:15:22;7.38;;;2.80;;
17618;SDS011;8928;51.678;6.074;2022-08-03T00:18:11;6.57;;;2.80;;
17618;SDS011;8928;51.678;6.074;2022-08-03T00:20:58;8.27;;;2.87;;
17618;SDS011;8928;51.678;6.074;2022-08-03T00:23:45;10.27;;;3.20;;
17618;SDS011;8928;51.678;6.074;2022-08-03T00:26:32;7.63;;;3.00;;
17618;SDS011;8928;51.678;6.074;2022-08-03T00:29:19;8.23;;;2.90;;
17618;SDS011;8928;51.678;6.074;2022-08-03T00:32:06;10.60;;;3.20;;
17618;SDS011;8928;51.678;6.074;2022-08-03T00:34:54;11.30;;;3.30;;
17618;SDS011;8928;51.678;6.074;2022-08-03T00:37:41;9.57;;;3.13;;
17618;SDS011;8928;51.678;6.074;2022-08-03T00:40:28;8.77;;;3.30;;
17618;SDS011;8928;51.678;6.074;2022-08-03T00:43:16;14.87;;;3.40;;
17618;SDS011;8928;51.678;6.074;2022-08-03T00:46:03;11.10;;;3.20;;
17618;SDS011;8928;51.678;6.074;2022-08-03T00:48:50;11.40;;;3.50;;
17618;SDS011;8928;51.678;6.074;2022-08-03T00:51:38;9.83;;;3.57;;
17618;SDS011;8928;51.678;6.074;2022-08-03T00:54:26;12.03;;;3.60;;
17618;SDS011;8928;51.678;6.074;2022-08-03T00:57:13;10.10;;;3.90;;
17618;SDS011;8928;51.678;6.074;2022-08-03T01:00:00;13.80;;;4.03;;
17618;SDS011;8928;51.678;6.074;2022-08-03T01:02:48;13.50;;;4.30;;
17618;SDS011;8928;51.678;6.074;2022-08-03T01:05:37;14.03;;;3.97;;
17618;SDS011;8928;51.678;6.074;2022-08-03T01:08:38;9.10;;;3.80;;
17618;SDS011;8928;51.678;6.074;2022-08-03T01:11:30;9.97;;;4.03;;
17618;SDS011;8928;51.678;6.074;2022-08-03T01:14:21;13.97;;;4.40;;
17618;SDS011;8928;51.678;6.074;2022-08-03T01:17:12;12.60;;;4.43;;
17618;SDS011;8928;51.678;6.074;2022-08-03T01:20:06;10.27;;;4.73;;
17618;SDS011;8928;51.678;6.074;2022-08-03T01:29:51;12.70;;;4.70;;
17618;SDS011;8928;51.678;6.074;2022-08-03T01:32:47;14.50;;;4.77;;
17618;SDS011;8928;51.678;6.074;2022-08-03T01:35:42;10.63;;;4.20;;
17618;SDS011;8928;51.678;6.074;2022-08-03T01:38:34;12.37;;;3.70;;
17618;SDS011;8928;51.678;6.074;2022-08-03T01:41:28;6.47;;;3.60;;
17618;SDS011;8928;51.678;6.074;2022-08-03T01:44:17;14.10;;;3.90;;
17618;SDS011;8928;51.678;6.074;2022-08-03T01:47:08;12.83;;;4.37;;
17618;SDS011;8928;51.678;6.074;2022-08-03T01:49:56;11.43;;;3.97;;
17618;SDS011;8928;51.678;6.074;2022-08-03T01:52:44;10.47;;;3.70;;
17618;SDS011;8928;51.678;6.074;2022-08-03T01:55:33;16.13;;;4.00;;
17618;SDS011;8928;51.678;6.074;2022-08-03T01:58:23;8.47;;;4.00;;
17618;SDS011;8928;51.678;6.074;2022-08-03T02:01:10;9.97;;;4.20;;
17618;SDS011;8928;51.678;6.074;2022-08-03T02:04:02;8.67;;;4.30;;
17618;SDS011;8928;51.678;6.074;2022-08-03T02:06:50;14.47;;;4.70;;
17618;SDS011;8928;51.678;6.074;2022-08-03T02:09:39;11.53;;;4.63;;
17618;SDS011;8928;51.678;6.074;2022-08-03T02:12:27;13.53;;;4.97;;
17618;SDS011;8928;51.678;6.074;2022-08-03T02:15:16;9.43;;;4.90;;
17618;SDS011;8928;51.678;6.074;2022-08-03T02:18:06;14.10;;;5.30;;
17618;SDS011;8928;51.678;6.074;2022-08-03T02:20:56;11.47;;;5.93;;
17618;SDS011;8928;51.678;6.074;2022-08-03T02:23:45;12.13;;;5.90;;
17618;SDS011;8928;51.678;6.074;2022-08-03T02:26:32;17.47;;;6.10;;
17618;SDS011;8928;51.678;6.074;2022-08-03T02:29:23;14.47;;;6.03;;
17618;SDS011;8928;51.678;6.074;2022-08-03T02:32:13;14.87;;;6.60;;
17618;SDS011;8928;51.678;6.074;2022-08-03T02:35:06;16.37;;;6.93;;
17618;SDS011;8928;51.678;6.074;2022-08-03T02:37:59;13.37;;;7.00;;
17618;SDS011;8928;51.678;6.074;2022-08-03T02:40:48;13.63;;;6.33;;
17618;SDS011;8928;51.678;6.074;2022-08-03T02:43:36;13.00;;;6.33;;
17618;SDS011;8928;51.678;6.074;2022-08-03T02:46:27;13.07;;;6.10;;
17618;SDS011;8928;51.678;6.074;2022-08-03T02:49:17;13.13;;;5.60;;
17618;SDS011;8928;51.678;6.074;2022-08-03T02:52:07;10.87;;;4.60;;
17618;SDS011;8928;51.678;6.074;2022-08-03T02:54:59;11.20;;;4.80;;
17618;SDS011;8928;51.678;6.074;2022-08-03T02:57:49;13.23;;;4.70;;
17618;SDS011;8928;51.678;6.074;2022-08-03T03:00:38;11.90;;;5.40;;
17618;SDS011;8928;51.678;6.074;2022-08-03T03:03:25;12.47;;;5.30;;
17618;SDS011;8928;51.678;6.074;2022-08-03T03:06:14;9.40;;;4.80;;
17618;SDS011;8928;51.678;6.074;2022-08-03T03:09:02;11.17;;;5.13;;
17618;SDS011;8928;51.678;6.074;2022-08-03T03:11:51;12.83;;;5.73;;
17618;SDS011;8928;51.678;6.074;2022-08-03T03:14:40;13.63;;;5.90;;
17618;SDS011;8928;51.678;6.074;2022-08-03T03:17:27;13.73;;;6.03;;
17618;SDS011;8928;51.678;6.074;2022-08-03T03:20:16;12.30;;;5.80;;
17618;SDS011;8928;51.678;6.074;2022-08-03T03:23:03;18.87;;;6.13;;
17618;SDS011;8928;51.678;6.074;2022-08-03T03:25:51;16.47;;;6.27;;
17618;SDS011;8928;51.678;6.074;2022-08-03T03:28:41;16.17;;;6.13;;
17618;SDS011;8928;51.678;6.074;2022-08-03T03:31:30;16.90;;;6.67;;
17618;SDS011;8928;51.678;6.074;2022-08-03T03:34:17;15.90;;;6.97;;
17618;SDS011;8928;51.678;6.074;2022-08-03T03:37:04;14.23;;;6.67;;
17618;SDS011;8928;51.678;6.074;2022-08-03T03:39:51;13.70;;;6.70;;
17618;SDS011;8928;51.678;6.074;2022-08-03T03:42:39;20.47;;;6.87;;
17618;SDS011;8928;51.678;6.074;2022-08-03T03:45:27;13.23;;;7.17;;
17618;SDS011;8928;51.678;6.074;2022-08-03T03:48:17;12.00;;;6.33;;
17618;SDS011;8928;51.678;6.074;2022-08-03T03:51:04;11.93;;;6.60;;
17618;SDS011;8928;51.678;6.074;2022-08-03T03:53:55;18.70;;;6.77;;
17618;SDS011;8928;51.678;6.074;2022-08-03T03:56:35;13.60;;;6.27;;
17618;SDS011;8928;51.678;6.074;2022-08-03T03:59:22;18.00;;;7.33;;
17618;SDS011;8928;51.678;6.074;2022-08-03T04:02:11;20.30;;;7.20;;
17618;SDS011;8928;51.678;6.074;2022-08-03T04:04:58;16.87;;;7.57;;
17618;SDS011;8928;51.678;6.074;2022-08-03T04:08:04;20.93;;;6.87;;
17618;SDS011;8928;51.678;6.074;2022-08-03T04:11:10;16.37;;;7.07;;
17618;SDS011;8928;51.678;6.074;2022-08-03T04:14:05;15.97;;;7.10;;
17618;SDS011;8928;51.678;6.074;2022-08-03T04:16:55;17.43;;;7.80;;
17618;SDS011;8928;51.678;6.074;2022-08-03T04:19:46;19.00;;;7.70;;
17618;SDS011;8928;51.678;6.074;2022-08-03T04:22:37;20.13;;;7.60;;
17618;SDS011;8928;51.678;6.074;2022-08-03T04:25:26;22.27;;;8.13;;
17618;SDS011;8928;51.678;6.074;2022-08-03T04:28:18;17.47;;;7.90;;
17618;SDS011;8928;51.678;6.074;2022-08-03T04:31:06;22.40;;;8.70;;
17618;SDS011;8928;51.678;6.074;2022-08-03T04:33:53;20.10;;;8.83;;
17618;SDS011;8928;51.678;6.074;2022-08-03T04:36:43;20.67;;;8.60;;
17618;SDS011;8928;51.678;6.074;2022-08-03T04:39:34;22.63;;;8.90;;
17618;SDS011;8928;51.678;6.074;2022-08-03T04:42:22;21.03;;;8.60;;
17618;SDS011;8928;51.678;6.074;2022-08-03T04:45:10;21.60;;;9.23;;
17618;SDS011;8928;51.678;6.074;2022-08-03T04:47:58;21.07;;;9.00;;
17618;SDS011;8928;51.678;6.074;2022-08-03T04:50:46;21.43;;;9.23;;
17618;SDS011;8928;51.678;6.074;2022-08-03T04:53:35;26.07;;;10.30;;
17618;SDS011;8928;51.678;6.074;2022-08-03T04:56:23;27.00;;;9.77;;
17618;SDS011;8928;51.678;6.074;2022-08-03T04:59:10;22.23;;;10.27;;
17618;SDS011;8928;51.678;6.074;2022-08-03T05:01:57;25.20;;;10.30;;
17618;SDS011;8928;51.678;6.074;2022-08-03T05:04:44;26.90;;;10.57;;
17618;SDS011;8928;51.678;6.074;2022-08-03T05:07:31;25.63;;;11.07;;
17618;SDS011;8928;51.678;6.074;2022-08-03T05:10:20;26.97;;;11.30;;
17618;SDS011;8928;51.678;6.074;2022-08-03T05:13:07;26.83;;;11.40;;
17618;SDS011;8928;51.678;6.074;2022-08-03T05:15:57;25.00;;;11.83;;
17618;SDS011;8928;51.678;6.074;2022-08-03T05:18:44;31.60;;;12.53;;
17618;SDS011;8928;51.678;6.074;2022-08-03T05:21:31;25.03;;;12.57;;
17618;SDS011;8928;51.678;6.074;2022-08-03T05:24:18;26.37;;;12.60;;
17618;SDS011;8928;51.678;6.074;2022-08-03T05:27:06;22.30;;;11.57;;
17618;SDS011;8928;51.678;6.074;2022-08-03T05:29:53;25.87;;;12.27;;
17618;SDS011;8928;51.678;6.074;2022-08-03T05:32:40;22.80;;;12.60;;
17618;SDS011;8928;51.678;6.074;2022-08-03T05:35:28;21.27;;;12.50;;
17618;SDS011;8928;51.678;6.074;2022-08-03T05:38:15;25.37;;;12.20;;
17618;SDS011;8928;51.678;6.074;2022-08-03T05:41:02;23.10;;;12.80;;
17618;SDS011;8928;51.678;6.074;2022-08-03T05:43:52;26.57;;;12.63;;
17618;SDS011;8928;51.678;6.074;2022-08-03T05:46:39;23.30;;;12.23;;
17618;SDS011;8928;51.678;6.074;2022-08-03T05:49:27;25.73;;;12.50;;
17618;SDS011;8928;51.678;6.074;2022-08-03T05:52:14;27.73;;;11.60;;
17618;SDS011;8928;51.678;6.074;2022-08-03T05:55:01;26.73;;;11.05;;
17618;SDS011;8928;51.678;6.074;2022-08-03T05:57:49;23.25;;;10.30;;
17618;SDS011;8928;51.678;6.074;2022-08-03T06:00:37;18.55;;;9.80;;
17618;SDS011;8928;51.678;6.074;2022-08-03T06:03:24;26.17;;;9.77;;
17618;SDS011;8928;51.678;6.074;2022-08-03T06:06:12;18.65;;;8.85;;
17618;SDS011;8928;51.678;6.074;2022-08-03T06:08:59;19.73;;;8.20;;
17618;SDS011;8928;51.678;6.074;2022-08-03T06:11:46;14.02;;;7.20;;
17618;SDS011;8928;51.678;6.074;2022-08-03T06:14:33;15.23;;;7.40;;
17618;SDS011;8928;51.678;6.074;2022-08-03T06:17:21;14.23;;;7.30;;
17618;SDS011;8928;51.678;6.074;2022-08-03T06:20:09;19.17;;;7.60;;
17618;SDS011;8928;51.678;6.074;2022-08-03T06:22:57;21.50;;;7.55;;
17618;SDS011;8928;51.678;6.074;2022-08-03T06:25:44;18.90;;;7.40;;
17618;SDS011;8928;51.678;6.074;2022-08-03T06:28:31;18.30;;;6.53;;
17618;SDS011;8928;51.678;6.074;2022-08-03T06:31:19;13.82;;;6.22;;
17618;SDS011;8928;51.678;6.074;2022-08-03T06:34:08;10.85;;;5.75;;
17618;SDS011;8928;51.678;6.074;2022-08-03T06:36:55;16.08;;;5.38;;
17618;SDS011;8928;51.678;6.074;2022-08-03T06:39:42;15.75;;;5.50;;
17618;SDS011;8928;51.678;6.074;2022-08-03T06:42:29;15.48;;;4.95;;
17618;SDS011;8928;51.678;6.074;2022-08-03T06:45:16;17.15;;;4.57;;
17618;SDS011;8928;51.678;6.074;2022-08-03T06:48:05;13.13;;;4.40;;
17618;SDS011;8928;51.678;6.074;2022-08-03T06:50:54;11.18;;;3.47;;
17618;SDS011;8928;51.678;6.074;2022-08-03T06:53:41;14.50;;;3.80;;
17618;SDS011;8928;51.678;6.074;2022-08-03T06:56:28;10.68;;;3.55;;
17618;SDS011;8928;51.678;6.074;2022-08-03T06:59:15;16.00;;;3.47;;
17618;SDS011;8928;51.678;6.074;2022-08-03T07:02:02;16.83;;;2.95;;
17618;SDS011;8928;51.678;6.074;2022-08-03T07:04:49;16.00;;;3.15;;
17618;SDS011;8928;51.678;6.074;2022-08-03T07:07:38;17.92;;;2.60;;
17618;SDS011;8928;51.678;6.074;2022-08-03T07:10:26;10.23;;;2.63;;
17618;SDS011;8928;51.678;6.074;2022-08-03T07:13:13;15.95;;;2.85;;
17618;SDS011;8928;51.678;6.074;2022-08-03T07:16:00;13.68;;;2.60;;
17618;SDS011;8928;51.678;6.074;2022-08-03T07:18:47;16.10;;;2.30;;
17618;SDS011;8928;51.678;6.074;2022-08-03T07:21:34;13.15;;;2.60;;
17618;SDS011;8928;51.678;6.074;2022-08-03T07:24:23;9.85;;;2.28;;
17618;SDS011;8928;51.678;6.074;2022-08-03T07:27:10;13.48;;;2.47;;
17618;SDS011;8928;51.678;6.074;2022-08-03T07:29:57;10.80;;;2.22;;
17618;SDS011;8928;51.678;6.074;2022-08-03T07:32:44;11.85;;;2.40;;
17618;SDS011;8928;51.678;6.074;2022-08-03T07:35:31;13.10;;;2.40;;
17618;SDS011;8928;51.678;6.074;2022-08-03T07:38:18;14.32;;;2.60;;
17618;SDS011;8928;51.678;6.074;2022-08-03T07:41:07;9.88;;;2.05;;
17618;SDS011;8928;51.678;6.074;2022-08-03T07:43:54;15.07;;;2.50;;
17618;SDS011;8928;51.678;6.074;2022-08-03T07:46:41;11.70;;;2.15;;
17618;SDS011;8928;51.678;6.074;2022-08-03T07:49:28;13.68;;;2.15;;
17618;SDS011;8928;51.678;6.074;2022-08-03T07:52:15;12.50;;;2.30;;
17618;SDS011;8928;51.678;6.074;2022-08-03T07:55:21;14.52;;;2.00;;
17618;SDS011;8928;51.678;6.074;2022-08-03T07:58:10;19.40;;;2.30;;
17618;SDS011;8928;51.678;6.074;2022-08-03T08:01:00;16.83;;;2.15;;
17618;SDS011;8928;51.678;6.074;2022-08-03T08:03:48;14.88;;;2.10;;
17618;SDS011;8928;51.678;6.074;2022-08-03T08:06:35;14.65;;;1.88;;
17618;SDS011;8928;51.678;6.074;2022-08-03T08:09:23;16.10;;;2.22;;
17618;SDS011;8928;51.678;6.074;2022-08-03T08:12:10;15.27;;;2.17;;
17618;SDS011;8928;51.678;6.074;2022-08-03T08:14:58;14.10;;;1.90;;
17618;SDS011;8928;51.678;6.074;2022-08-03T08:17:46;13.00;;;2.10;;
17618;SDS011;8928;51.678;6.074;2022-08-03T08:20:34;11.50;;;2.00;;
17618;SDS011;8928;51.678;6.074;2022-08-03T08:23:23;17.55;;;2.17;;
17618;SDS011;8928;51.678;6.074;2022-08-03T08:26:10;14.43;;;1.70;;
17618;SDS011;8928;51.678;6.074;2022-08-03T08:28:58;15.48;;;2.00;;
17618;SDS011;8928;51.678;6.074;2022-08-03T08:31:46;8.18;;;1.70;;
17618;SDS011;8928;51.678;6.074;2022-08-03T08:34:33;11.10;;;1.85;;
17618;SDS011;8928;51.678;6.074;2022-08-03T08:37:20;13.00;;;1.85;;
17618;SDS011;8928;51.678;6.074;2022-08-03T08:40:08;10.25;;;1.50;;
17618;SDS011;8928;51.678;6.074;2022-08-03T08:42:55;12.95;;;1.88;;
17618;SDS011;8928;51.678;6.074;2022-08-03T08:45:43;11.45;;;1.73;;
17618;SDS011;8928;51.678;6.074;2022-08-03T08:48:32;10.38;;;1.88;;
17618;SDS011;8928;51.678;6.074;2022-08-03T08:51:21;8.98;;;1.83;;
17618;SDS011;8928;51.678;6.074;2022-08-03T08:54:15;12.70;;;2.10;;
17618;SDS011;8928;51.678;6.074;2022-08-03T08:57:06;9.23;;;1.40;;
17618;SDS011;8928;51.678;6.074;2022-08-03T08:59:54;10.27;;;1.88;;
17618;SDS011;8928;51.678;6.074;2022-08-03T09:02:42;7.93;;;1.42;;
17618;SDS011;8928;51.678;6.074;2022-08-03T09:05:32;5.90;;;1.27;;
17618;SDS011;8928;51.678;6.074;2022-08-03T09:08:19;10.88;;;1.50;;
17618;SDS011;8928;51.678;6.074;2022-08-03T09:11:07;10.05;;;1.40;;
17618;SDS011;8928;51.678;6.074;2022-08-03T09:13:54;8.77;;;1.60;;
17618;SDS011;8928;51.678;6.074;2022-08-03T09:16:54;8.38;;;1.70;;
17618;SDS011;8928;51.678;6.074;2022-08-03T09:19:43;8.60;;;1.55;;
17618;SDS011;8928;51.678;6.074;2022-08-03T09:22:53;7.57;;;1.40;;
17618;SDS011;8928;51.678;6.074;2022-08-03T09:25:43;11.32;;;1.80;;
17618;SDS011;8928;51.678;6.074;2022-08-03T09:28:32;11.88;;;1.60;;
17618;SDS011;8928;51.678;6.074;2022-08-03T09:31:27;7.72;;;1.67;;
17618;SDS011;8928;51.678;6.074;2022-08-03T09:34:16;8.75;;;1.65;;
17618;SDS011;8928;51.678;6.074;2022-08-03T09:37:03;8.73;;;1.50;;
17618;SDS011;8928;51.678;6.074;2022-08-03T09:40:00;7.28;;;1.48;;
17618;SDS011;8928;51.678;6.074;2022-08-03T09:42:54;11.30;;;1.80;;
17618;SDS011;8928;51.678;6.074;2022-08-03T09:45:43;6.00;;;1.40;;
17618;SDS011;8928;51.678;6.074;2022-08-03T09:48:30;9.38;;;1.45;;
17618;SDS011;8928;51.678;6.074;2022-08-03T09:51:21;6.97;;;1.42;;
17618;SDS011;8928;51.678;6.074;2022-08-03T09:54:10;19.15;;;1.80;;
17618;SDS011;8928;51.678;6.074;2022-08-03T09:57:00;10.15;;;1.40;;
17618;SDS011;8928;51.678;6.074;2022-08-03T09:59:48;7.28;;;1.48;;
17618;SDS011;8928;51.678;6.074;2022-08-03T10:02:36;9.88;;;1.48;;
17618;SDS011;8928;51.678;6.074;2022-08-03T10:05:30;10.30;;;1.27;;
17618;SDS011;8928;51.678;6.074;2022-08-03T10:08:18;9.65;;;1.30;;
17618;SDS011;8928;51.678;6.074;2022-08-03T10:11:05;11.68;;;1.60;;
17618;SDS011;8928;51.678;6.074;2022-08-03T10:13:54;9.57;;;1.50;;
17618;SDS011;8928;51.678;6.074;2022-08-03T10:16:41;9.18;;;1.45;;
17618;SDS011;8928;51.678;6.074;2022-08-03T10:19:28;11.02;;;1.42;;
17618;SDS011;8928;51.678;6.074;2022-08-03T10:22:17;7.50;;;1.27;;
17618;SDS011;8928;51.678;6.074;2022-08-03T10:25:08;11.25;;;1.40;;
17618;SDS011;8928;51.678;6.074;2022-08-03T10:27:57;6.43;;;1.20;;
17618;SDS011;8928;51.678;6.074;2022-08-03T10:30:51;6.47;;;1.27;;
17618;SDS011;8928;51.678;6.074;2022-08-03T10:33:41;9.90;;;1.40;;
17618;SDS011;8928;51.678;6.074;2022-08-03T10:36:30;12.27;;;1.52;;
17618;SDS011;8928;51.678;6.074;2022-08-03T10:39:23;10.15;;;1.60;;
17618;SDS011;8928;51.678;6.074;2022-08-03T10:42:13;14.40;;;1.50;;
17618;SDS011;8928;51.678;6.074;2022-08-03T10:45:02;8.88;;;1.50;;
17618;SDS011;8928;51.678;6.074;2022-08-03T10:47:53;15.77;;;1.65;;
17618;SDS011;8928;51.678;6.074;2022-08-03T10:50:42;18.35;;;1.60;;
17618;SDS011;8928;51.678;6.074;2022-08-03T10:53:33;20.20;;;1.92;;
17618;SDS011;8928;51.678;6.074;2022-08-03T10:59:58;12.55;;;1.70;;
17618;SDS011;8928;51.678;6.074;2022-08-03T11:03:05;10.45;;;1.80;;
17618;SDS011;8928;51.678;6.074;2022-08-03T11:05:55;15.15;;;1.90;;
17618;SDS011;8928;51.678;6.074;2022-08-03T11:09:13;17.88;;;1.95;;
17618;SDS011;8928;51.678;6.074;2022-08-03T11:12:02;16.58;;;1.88;;
17618;SDS011;8928;51.678;6.074;2022-08-03T11:15:08;16.02;;;2.20;;
17618;SDS011;8928;51.678;6.074;2022-08-03T11:18:06;19.90;;;1.92;;
17618;SDS011;8928;51.678;6.074;2022-08-03T11:20:55;15.52;;;1.70;;
17618;SDS011;8928;51.678;6.074;2022-08-03T11:23:44;18.05;;;1.65;;
17618;SDS011;8928;51.678;6.074;2022-08-03T11:26:33;16.25;;;2.00;;
17618;SDS011;8928;51.678;6.074;2022-08-03T11:29:26;17.55;;;2.10;;
17618;SDS011;8928;51.678;6.074;2022-08-03T11:32:19;17.48;;;2.08;;
17618;SDS011;8928;51.678;6.074;2022-08-03T11:35:56;19.52;;;1.98;;
17618;SDS011;8928;51.678;6.074;2022-08-03T11:41:58;14.15;;;2.10;;
17618;SDS011;8928;51.678;6.074;2022-08-03T11:44:45;13.00;;;2.13;;
17618;SDS011;8928;51.678;6.074;2022-08-03T11:47:35;17.65;;;2.63;;
17618;SDS011;8928;51.678;6.074;2022-08-03T11:50:23;20.42;;;2.20;;
17618;SDS011;8928;51.678;6.074;2022-08-03T11:53:15;13.05;;;2.20;;
17618;SDS011;8928;51.678;6.074;2022-08-03T11:56:04;17.73;;;2.20;;
17618;SDS011;8928;51.678;6.074;2022-08-03T11:58:52;13.48;;;2.50;;
17618;SDS011;8928;51.678;6.074;2022-08-03T12:01:40;15.77;;;2.33;;
17618;SDS011;8928;51.678;6.074;2022-08-03T12:04:27;22.00;;;2.53;;
17618;SDS011;8928;51.678;6.074;2022-08-03T12:07:14;19.40;;;2.30;;
17618;SDS011;8928;51.678;6.074;2022-08-03T12:10:07;21.85;;;2.42;;
17618;SDS011;8928;51.678;6.074;2022-08-03T12:12:55;23.02;;;2.67;;
17618;SDS011;8928;51.678;6.074;2022-08-03T12:15:47;19.27;;;2.40;;
17618;SDS011;8928;51.678;6.074;2022-08-03T12:18:36;17.80;;;2.35;;
17618;SDS011;8928;51.678;6.074;2022-08-03T12:21:24;17.98;;;2.80;;
17618;SDS011;8928;51.678;6.074;2022-08-03T12:24:11;16.88;;;2.20;;
17618;SDS011;8928;51.678;6.074;2022-08-03T12:26:59;17.70;;;2.40;;
17618;SDS011;8928;51.678;6.074;2022-08-03T12:29:49;17.90;;;2.72;;
17618;SDS011;8928;51.678;6.074;2022-08-03T12:32:36;16.63;;;2.53;;
17618;SDS011;8928;51.678;6.074;2022-08-03T12:35:24;27.42;;;2.42;;
17618;SDS011;8928;51.678;6.074;2022-08-03T12:38:11;18.23;;;2.50;;
17618;SDS011;8928;51.678;6.074;2022-08-03T12:40:59;19.90;;;2.53;;
17618;SDS011;8928;51.678;6.074;2022-08-03T12:43:50;25.58;;;2.40;;
17618;SDS011;8928;51.678;6.074;2022-08-03T12:46:39;12.90;;;2.13;;
17618;SDS011;8928;51.678;6.074;2022-08-03T12:49:27;13.05;;;2.10;;
17618;SDS011;8928;51.678;6.074;2022-08-03T12:52:15;19.17;;;2.20;;
17618;SDS011;8928;51.678;6.074;2022-08-03T12:55:03;21.77;;;2.13;;
17618;SDS011;8928;51.678;6.074;2022-08-03T12:57:51;12.57;;;2.00;;
17618;SDS011;8928;51.678;6.074;2022-08-03T13:00:39;16.98;;;2.00;;
17618;SDS011;8928;51.678;6.074;2022-08-03T13:03:26;16.98;;;2.20;;
17618;SDS011;8928;51.678;6.074;2022-08-03T13:06:14;15.90;;;2.33;;
17618;SDS011;8928;51.678;6.074;2022-08-03T13:09:03;17.63;;;2.30;;
17618;SDS011;8928;51.678;6.074;2022-08-03T13:14:58;16.25;;;2.05;;
17618;SDS011;8928;51.678;6.074;2022-08-03T13:17:47;12.95;;;2.10;;
17618;SDS011;8928;51.678;6.074;2022-08-03T13:20:34;9.85;;;1.77;;
17618;SDS011;8928;51.678;6.074;2022-08-03T13:23:21;13.77;;;2.25;;
17618;SDS011;8928;51.678;6.074;2022-08-03T13:26:08;17.55;;;2.22;;
17618;SDS011;8928;51.678;6.074;2022-08-03T13:28:56;11.68;;;2.00;;
17618;SDS011;8928;51.678;6.074;2022-08-03T13:31:43;14.70;;;2.25;;
17618;SDS011;8928;51.678;6.074;2022-08-03T13:34:31;15.32;;;2.10;;
17618;SDS011;8928;51.678;6.074;2022-08-03T13:37:18;14.70;;;2.17;;
17618;SDS011;8928;51.678;6.074;2022-08-03T13:40:06;14.70;;;2.10;;
17618;SDS011;8928;51.678;6.074;2022-08-03T13:42:54;14.07;;;2.20;;
17618;SDS011;8928;51.678;6.074;2022-08-03T13:45:41;14.05;;;2.17;;
17618;SDS011;8928;51.678;6.074;2022-08-03T13:48:28;13.10;;;1.95;;
17618;SDS011;8928;51.678;6.074;2022-08-03T13:51:16;9.38;;;1.90;;
17618;SDS011;8928;51.678;6.074;2022-08-03T13:54:04;11.57;;;2.10;;
17618;SDS011;8928;51.678;6.074;2022-08-03T13:56:51;11.05;;;1.77;;
17618;SDS011;8928;51.678;6.074;2022-08-03T13:59:38;17.52;;;2.38;;
17618;SDS011;8928;51.678;6.074;2022-08-03T14:02:25;11.07;;;2.15;;
17618;SDS011;8928;51.678;6.074;2022-08-03T14:05:12;8.30;;;2.10;;
17618;SDS011;8928;51.678;6.074;2022-08-03T14:08:00;15.70;;;2.03;;
17618;SDS011;8928;51.678;6.074;2022-08-03T14:10:49;10.25;;;1.98;;
17618;SDS011;8928;51.678;6.074;2022-08-03T14:13:36;8.80;;;1.90;;
17618;SDS011;8928;51.678;6.074;2022-08-03T14:16:24;11.80;;;1.95;;
17618;SDS011;8928;51.678;6.074;2022-08-03T14:19:11;8.85;;;1.73;;
17618;SDS011;8928;51.678;6.074;2022-08-03T14:22:00;15.30;;;1.95;;
17618;SDS011;8928;51.678;6.074;2022-08-03T14:24:48;11.43;;;1.80;;
17618;SDS011;8928;51.678;6.074;2022-08-03T14:27:35;10.13;;;2.17;;
17618;SDS011;8928;51.678;6.074;2022-08-03T14:30:22;11.75;;;2.20;;
17618;SDS011;8928;51.678;6.074;2022-08-03T14:33:09;16.20;;;2.13;;
17618;SDS011;8928;51.678;6.074;2022-08-03T14:35:57;19.92;;;2.22;;
17618;SDS011;8928;51.678;6.074;2022-08-03T14:38:44;11.60;;;1.70;;
17618;SDS011;8928;51.678;6.074;2022-08-03T14:41:32;13.45;;;1.92;;
17618;SDS011;8928;51.678;6.074;2022-08-03T14:44:19;9.48;;;1.90;;
17618;SDS011;8928;51.678;6.074;2022-08-03T14:47:06;11.23;;;1.90;;
17618;SDS011;8928;51.678;6.074;2022-08-03T14:49:53;9.07;;;2.00;;
17618;SDS011;8928;51.678;6.074;2022-08-03T14:52:40;10.93;;;1.85;;
17618;SDS011;8928;51.678;6.074;2022-08-03T14:55:27;7.10;;;1.65;;
17618;SDS011;8928;51.678;6.074;2022-08-03T14:58:16;15.25;;;1.92;;
17618;SDS011;8928;51.678;6.074;2022-08-03T15:01:03;7.88;;;1.65;;
17618;SDS011;8928;51.678;6.074;2022-08-03T15:03:51;10.60;;;1.90;;
17618;SDS011;8928;51.678;6.074;2022-08-03T15:06:38;12.00;;;2.20;;
17618;SDS011;8928;51.678;6.074;2022-08-03T15:09:25;13.15;;;1.80;;
17618;SDS011;8928;51.678;6.074;2022-08-03T15:12:12;8.68;;;1.90;;
17618;SDS011;8928;51.678;6.074;2022-08-03T15:15:01;17.83;;;2.25;;
17618;SDS011;8928;51.678;6.074;2022-08-03T15:17:48;11.98;;;2.15;;
17618;SDS011;8928;51.678;6.074;2022-08-03T15:20:35;13.68;;;2.20;;
17618;SDS011;8928;51.678;6.074;2022-08-03T15:23:22;13.75;;;2.08;;
17618;SDS011;8928;51.678;6.074;2022-08-03T15:26:10;10.68;;;2.38;;
17618;SDS011;8928;51.678;6.074;2022-08-03T15:28:57;8.38;;;2.03;;
17618;SDS011;8928;51.678;6.074;2022-08-03T15:31:46;10.65;;;2.10;;
17618;SDS011;8928;51.678;6.074;2022-08-03T15:34:33;17.48;;;2.40;;
17618;SDS011;8928;51.678;6.074;2022-08-03T15:37:20;12.27;;;1.92;;
17618;SDS011;8928;51.678;6.074;2022-08-03T15:40:10;8.30;;;2.10;;
17618;SDS011;8928;51.678;6.074;2022-08-03T15:42:58;13.13;;;2.10;;
17618;SDS011;8928;51.678;6.074;2022-08-03T15:45:46;11.20;;;2.10;;
17618;SDS011;8928;51.678;6.074;2022-08-03T15:48:34;9.57;;;2.03;;
17618;SDS011;8928;51.678;6.074;2022-08-03T15:51:21;9.07;;;1.80;;
17618;SDS011;8928;51.678;6.074;2022-08-03T15:54:08;9.43;;;2.10;;
17618;SDS011;8928;51.678;6.074;2022-08-03T15:56:55;8.50;;;1.77;;
17618;SDS011;8928;51.678;6.074;2022-08-03T15:59:42;12.10;;;2.10;;
17618;SDS011;8928;51.678;6.074;2022-08-03T16:02:29;11.65;;;1.92;;
17618;SDS011;8928;51.678;6.074;2022-08-03T16:05:18;7.95;;;2.10;;
17618;SDS011;8928;51.678;6.074;2022-08-03T16:08:05;6.85;;;2.00;;
17618;SDS011;8928;51.678;6.074;2022-08-03T16:10:52;12.23;;;2.10;;
17618;SDS011;8928;51.678;6.074;2022-08-03T16:13:39;9.88;;;2.58;;
17618;SDS011;8928;51.678;6.074;2022-08-03T16:16:26;14.07;;;2.20;;
17618;SDS011;8928;51.678;6.074;2022-08-03T16:19:13;9.70;;;2.03;;
17618;SDS011;8928;51.678;6.074;2022-08-03T16:22:02;10.35;;;2.40;;
17618;SDS011;8928;51.678;6.074;2022-08-03T16:24:49;14.68;;;2.15;;
17618;SDS011;8928;51.678;6.074;2022-08-03T16:27:37;8.35;;;2.30;;
17618;SDS011;8928;51.678;6.074;2022-08-03T16:30:25;7.80;;;2.10;;
17618;SDS011;8928;51.678;6.074;2022-08-03T16:33:13;12.05;;;2.30;;
17618;SDS011;8928;51.678;6.074;2022-08-03T16:36:01;11.93;;;2.53;;
17618;SDS011;8928;51.678;6.074;2022-08-03T16:38:49;15.60;;;3.40;;
17618;SDS011;8928;51.678;6.074;2022-08-03T16:41:36;14.63;;;3.38;;
17618;SDS011;8928;51.678;6.074;2022-08-03T16:44:24;13.90;;;3.35;;
17618;SDS011;8928;51.678;6.074;2022-08-03T16:47:11;11.32;;;2.70;;
17618;SDS011;8928;51.678;6.074;2022-08-03T16:49:58;10.35;;;2.67;;
17618;SDS011;8928;51.678;6.074;2022-08-03T16:52:46;14.80;;;2.50;;
17618;SDS011;8928;51.678;6.074;2022-08-03T16:55:34;10.18;;;2.40;;
17618;SDS011;8928;51.678;6.074;2022-08-03T16:58:22;9.50;;;2.38;;
17618;SDS011;8928;51.678;6.074;2022-08-03T17:01:09;10.27;;;2.08;;
17618;SDS011;8928;51.678;6.074;2022-08-03T17:03:58;8.85;;;2.00;;
17618;SDS011;8928;51.678;6.074;2022-08-03T17:06:46;10.82;;;2.15;;
17618;SDS011;8928;51.678;6.074;2022-08-03T17:09:33;8.07;;;1.90;;
17618;SDS011;8928;51.678;6.074;2022-08-03T17:12:21;7.13;;;1.90;;
17618;SDS011;8928;51.678;6.074;2022-08-03T17:15:09;8.02;;;2.13;;
17618;SDS011;8928;51.678;6.074;2022-08-03T17:18:00;11.32;;;2.13;;